This is the latest recevied weather packets stored in our database for station/object KD8ZLZ-13. If no packets are shown the sender has not sent any weather packets the latest 1 day(s).
| Time | Temp. | Humidity | Pressure | Rain* | Wind** | Luminosity | Snow |
|---|---|---|---|---|---|---|---|
| 1778017241 | 12.78° C | 64% | 1008.5 hPa | 0 mm | 0.89 m/s, 223° | 89 W/m² | - |
| 1778016641 | 12.22° C | 64% | 1008.5 hPa | 0 mm | 0.89 m/s, 213° | 74 W/m² | - |
| 1778016041 | 12.22° C | 64% | 1008.8 hPa | 0 mm | 0.89 m/s, 208° | 77 W/m² | - |
| 1778015441 | 12.22° C | 62% | 1008.8 hPa | 0 mm | 1.34 m/s, 242° | 82 W/m² | - |
| 1778014841 | 12.22° C | 63% | 1008.8 hPa | 0 mm | 1.34 m/s, 246° | 90 W/m² | - |
| 1778014241 | 12.22° C | 62% | 1008.8 hPa | 0 mm | 1.34 m/s, 251° | 81 W/m² | - |
| 1778013641 | 12.22° C | 63% | 1008.8 hPa | 0 mm | 1.34 m/s, 218° | 95 W/m² | - |
| 1778013041 | 12.22° C | 62% | 1009.2 hPa | 0 mm | 1.79 m/s, 213° | 146 W/m² | - |
| 1778012441 | 12.78° C | 62% | 1009.2 hPa | 0 mm | 1.34 m/s, 216° | 216 W/m² | - |
| 1778011841 | 12.78° C | 61% | 1009.2 hPa | 0 mm | 1.34 m/s, 230° | 233 W/m² | - |
| 1778011241 | 12.78° C | 60% | 1009.2 hPa | 0 mm | 2.24 m/s, 252° | 252 W/m² | - |
| 1778010641 | 12.22° C | 60% | 1009.2 hPa | 0 mm | 1.79 m/s, 244° | 197 W/m² | - |
| 1778010041 | 12.78° C | 60% | 1009.2 hPa | 0 mm | 1.79 m/s, 234° | 201 W/m² | - |
| 1777994583 | 15° C | 50% | 1007.1 hPa | 0 mm | 1.34 m/s, 252° | 0 W/m² | - |
| 1777993983 | 15° C | 49% | 1007.1 hPa | 0 mm | 1.34 m/s, 240° | 0 W/m² | - |
| 1777993383 | 15° C | 49% | 1007.1 hPa | 0 mm | 1.79 m/s, 246° | 0 W/m² | - |
| 1777992783 | 15° C | 50% | 1007.1 hPa | 0 mm | 0.89 m/s, 249° | 0 W/m² | - |
| 1777992183 | 15° C | 48% | 1006.7 hPa | 0 mm | 2.24 m/s, 242° | 0 W/m² | - |
| 1777991583 | 15.56° C | 47% | 1006.4 hPa | 0 mm | 2.68 m/s, 272° | 0 W/m² | - |
| 1777990983 | 15.56° C | 46% | 1006.4 hPa | 0 mm | 3.13 m/s, 248° | 0 W/m² | - |
| 1777990383 | 16.11° C | 48% | 1006.1 hPa | 0 mm | 2.68 m/s, 298° | 0 W/m² | - |
| 1777989783 | 16.11° C | 54% | 1005.7 hPa | 0 mm | 3.13 m/s, 267° | 0 W/m² | - |
| 1777989183 | 16.11° C | 62% | 1005.7 hPa | 0 mm | 1.79 m/s, 245° | 0 W/m² | - |
| 1777988583 | 15.56° C | 63% | 1006.1 hPa | 0 mm | 2.24 m/s, 233° | 0 W/m² | - |
| 1777987983 | 15° C | 64% | 1006.1 hPa | 0 mm | 1.34 m/s, 222° | 0 W/m² | - |
* Rain latest hour (hover to see other rain measurements)
** Current wind speed in m/s (hover to see current wind gust speed)